sensor_id;sensor_type;location;lat;lon;timestamp;P1;durP1;ratioP1;P2;durP2;ratioP2
6775;SDS011;3425;51.376;5.222;2024-01-06T00:00:26;28.60;;;26.88;;
6775;SDS011;3425;51.376;5.222;2024-01-06T00:02:54;27.27;;;25.67;;
6775;SDS011;3425;51.376;5.222;2024-01-06T00:05:21;29.48;;;27.67;;
6775;SDS011;3425;51.376;5.222;2024-01-06T00:07:48;28.08;;;26.27;;
6775;SDS011;3425;51.376;5.222;2024-01-06T00:10:16;27.90;;;26.23;;
6775;SDS011;3425;51.376;5.222;2024-01-06T00:12:43;29.75;;;27.63;;
6775;SDS011;3425;51.376;5.222;2024-01-06T00:15:11;27.25;;;25.65;;
6775;SDS011;3425;51.376;5.222;2024-01-06T00:17:38;27.38;;;25.70;;
6775;SDS011;3425;51.376;5.222;2024-01-06T00:20:06;25.92;;;24.42;;
6775;SDS011;3425;51.376;5.222;2024-01-06T00:22:34;26.88;;;25.02;;
6775;SDS011;3425;51.376;5.222;2024-01-06T00:25:01;27.38;;;25.67;;
6775;SDS011;3425;51.376;5.222;2024-01-06T00:27:29;27.02;;;25.23;;
6775;SDS011;3425;51.376;5.222;2024-01-06T00:29:56;25.88;;;24.27;;
6775;SDS011;3425;51.376;5.222;2024-01-06T00:32:24;25.40;;;23.88;;
6775;SDS011;3425;51.376;5.222;2024-01-06T00:34:51;25.40;;;23.90;;
6775;SDS011;3425;51.376;5.222;2024-01-06T00:37:18;26.48;;;24.88;;
6775;SDS011;3425;51.376;5.222;2024-01-06T00:39:46;27.13;;;25.40;;
6775;SDS011;3425;51.376;5.222;2024-01-06T00:42:13;26.98;;;25.30;;
6775;SDS011;3425;51.376;5.222;2024-01-06T00:44:40;27.33;;;25.45;;
6775;SDS011;3425;51.376;5.222;2024-01-06T00:47:08;25.40;;;23.90;;
6775;SDS011;3425;51.376;5.222;2024-01-06T00:49:35;27.13;;;25.20;;
6775;SDS011;3425;51.376;5.222;2024-01-06T00:52:02;28.27;;;26.52;;
6775;SDS011;3425;51.376;5.222;2024-01-06T00:54:30;27.08;;;25.05;;
6775;SDS011;3425;51.376;5.222;2024-01-06T00:56:58;27.83;;;26.02;;
6775;SDS011;3425;51.376;5.222;2024-01-06T00:59:25;31.85;;;28.50;;
6775;SDS011;3425;51.376;5.222;2024-01-06T01:01:53;28.58;;;26.25;;
6775;SDS011;3425;51.376;5.222;2024-01-06T01:04:20;29.73;;;27.33;;
6775;SDS011;3425;51.376;5.222;2024-01-06T01:06:48;27.27;;;25.63;;
6775;SDS011;3425;51.376;5.222;2024-01-06T01:09:15;28.45;;;26.65;;
6775;SDS011;3425;51.376;5.222;2024-01-06T01:11:42;27.30;;;25.70;;
6775;SDS011;3425;51.376;5.222;2024-01-06T01:14:10;28.60;;;26.90;;
6775;SDS011;3425;51.376;5.222;2024-01-06T01:16:37;27.85;;;26.10;;
6775;SDS011;3425;51.376;5.222;2024-01-06T01:19:04;28.77;;;26.92;;
6775;SDS011;3425;51.376;5.222;2024-01-06T01:21:32;31.33;;;28.00;;
6775;SDS011;3425;51.376;5.222;2024-01-06T01:23:59;26.48;;;24.95;;
6775;SDS011;3425;51.376;5.222;2024-01-06T01:26:26;26.75;;;25.15;;
6775;SDS011;3425;51.376;5.222;2024-01-06T01:28:53;27.70;;;25.90;;
6775;SDS011;3425;51.376;5.222;2024-01-06T01:31:21;26.70;;;25.17;;
6775;SDS011;3425;51.376;5.222;2024-01-06T01:33:49;28.63;;;26.33;;
6775;SDS011;3425;51.376;5.222;2024-01-06T01:36:16;26.50;;;24.88;;
6775;SDS011;3425;51.376;5.222;2024-01-06T01:38:44;27.52;;;25.85;;
6775;SDS011;3425;51.376;5.222;2024-01-06T01:41:11;26.63;;;24.73;;
6775;SDS011;3425;51.376;5.222;2024-01-06T01:43:39;27.63;;;25.52;;
6775;SDS011;3425;51.376;5.222;2024-01-06T01:46:06;28.30;;;25.45;;
6775;SDS011;3425;51.376;5.222;2024-01-06T01:48:33;26.45;;;24.85;;
6775;SDS011;3425;51.376;5.222;2024-01-06T01:51:01;29.23;;;26.88;;
6775;SDS011;3425;51.376;5.222;2024-01-06T01:53:29;28.55;;;26.70;;
6775;SDS011;3425;51.376;5.222;2024-01-06T01:55:57;27.23;;;25.63;;
6775;SDS011;3425;51.376;5.222;2024-01-06T01:58:25;27.45;;;25.75;;
6775;SDS011;3425;51.376;5.222;2024-01-06T02:00:52;26.58;;;24.98;;
6775;SDS011;3425;51.376;5.222;2024-01-06T02:03:20;26.95;;;25.13;;
6775;SDS011;3425;51.376;5.222;2024-01-06T02:05:49;26.10;;;24.23;;
6775;SDS011;3425;51.376;5.222;2024-01-06T02:08:18;26.65;;;25.00;;
6775;SDS011;3425;51.376;5.222;2024-01-06T02:10:48;27.23;;;25.52;;
6775;SDS011;3425;51.376;5.222;2024-01-06T02:13:15;26.80;;;25.13;;
6775;SDS011;3425;51.376;5.222;2024-01-06T02:15:43;26.52;;;24.83;;
6775;SDS011;3425;51.376;5.222;2024-01-06T02:18:10;25.05;;;23.40;;
6775;SDS011;3425;51.376;5.222;2024-01-06T02:20:37;26.60;;;24.88;;
6775;SDS011;3425;51.376;5.222;2024-01-06T02:23:06;26.45;;;24.65;;
6775;SDS011;3425;51.376;5.222;2024-01-06T02:25:34;25.92;;;24.27;;
6775;SDS011;3425;51.376;5.222;2024-01-06T02:28:01;24.80;;;23.38;;
6775;SDS011;3425;51.376;5.222;2024-01-06T02:30:28;25.45;;;23.67;;
6775;SDS011;3425;51.376;5.222;2024-01-06T02:32:57;26.00;;;24.42;;
6775;SDS011;3425;51.376;5.222;2024-01-06T02:35:24;26.23;;;24.38;;
6775;SDS011;3425;51.376;5.222;2024-01-06T02:37:51;24.90;;;23.25;;
6775;SDS011;3425;51.376;5.222;2024-01-06T02:40:18;24.80;;;23.30;;
6775;SDS011;3425;51.376;5.222;2024-01-06T02:42:46;24.98;;;23.38;;
6775;SDS011;3425;51.376;5.222;2024-01-06T02:45:13;24.95;;;23.50;;
6775;SDS011;3425;51.376;5.222;2024-01-06T02:47:40;25.35;;;23.55;;
6775;SDS011;3425;51.376;5.222;2024-01-06T02:50:08;24.90;;;23.33;;
6775;SDS011;3425;51.376;5.222;2024-01-06T02:52:36;24.15;;;22.75;;
6775;SDS011;3425;51.376;5.222;2024-01-06T02:55:03;24.85;;;23.38;;
6775;SDS011;3425;51.376;5.222;2024-01-06T02:57:33;24.33;;;22.92;;
6775;SDS011;3425;51.376;5.222;2024-01-06T03:00:02;23.17;;;21.77;;
6775;SDS011;3425;51.376;5.222;2024-01-06T03:02:29;24.13;;;22.73;;
6775;SDS011;3425;51.376;5.222;2024-01-06T03:04:58;22.67;;;21.38;;
6775;SDS011;3425;51.376;5.222;2024-01-06T03:07:25;22.85;;;21.52;;
6775;SDS011;3425;51.376;5.222;2024-01-06T03:09:52;23.65;;;22.25;;
6775;SDS011;3425;51.376;5.222;2024-01-06T03:12:20;23.30;;;22.00;;
6775;SDS011;3425;51.376;5.222;2024-01-06T03:14:47;22.70;;;21.40;;
6775;SDS011;3425;51.376;5.222;2024-01-06T03:17:14;22.98;;;21.67;;
6775;SDS011;3425;51.376;5.222;2024-01-06T03:19:41;23.13;;;21.70;;
6775;SDS011;3425;51.376;5.222;2024-01-06T03:22:09;23.52;;;21.90;;
6775;SDS011;3425;51.376;5.222;2024-01-06T03:24:36;22.85;;;21.55;;
6775;SDS011;3425;51.376;5.222;2024-01-06T03:27:03;24.50;;;22.88;;
6775;SDS011;3425;51.376;5.222;2024-01-06T03:29:31;22.60;;;21.30;;
6775;SDS011;3425;51.376;5.222;2024-01-06T03:31:58;22.70;;;21.40;;
6775;SDS011;3425;51.376;5.222;2024-01-06T03:34:25;22.83;;;21.52;;
6775;SDS011;3425;51.376;5.222;2024-01-06T03:36:53;22.10;;;20.83;;
6775;SDS011;3425;51.376;5.222;2024-01-06T03:39:21;22.65;;;21.35;;
6775;SDS011;3425;51.376;5.222;2024-01-06T03:41:48;22.42;;;21.00;;
6775;SDS011;3425;51.376;5.222;2024-01-06T03:44:16;23.08;;;21.60;;
6775;SDS011;3425;51.376;5.222;2024-01-06T03:46:43;22.88;;;21.38;;
6775;SDS011;3425;51.376;5.222;2024-01-06T03:49:10;22.35;;;21.13;;
6775;SDS011;3425;51.376;5.222;2024-01-06T03:51:37;21.80;;;20.50;;
6775;SDS011;3425;51.376;5.222;2024-01-06T03:54:05;21.60;;;20.40;;
6775;SDS011;3425;51.376;5.222;2024-01-06T03:56:32;23.00;;;21.50;;
6775;SDS011;3425;51.376;5.222;2024-01-06T03:58:59;22.42;;;21.17;;
6775;SDS011;3425;51.376;5.222;2024-01-06T04:01:27;22.90;;;21.40;;
6775;SDS011;3425;51.376;5.222;2024-01-06T04:03:55;22.08;;;20.85;;
6775;SDS011;3425;51.376;5.222;2024-01-06T04:06:22;22.60;;;21.33;;
6775;SDS011;3425;51.376;5.222;2024-01-06T04:08:50;22.83;;;21.52;;
6775;SDS011;3425;51.376;5.222;2024-01-06T04:11:19;23.00;;;21.70;;
6775;SDS011;3425;51.376;5.222;2024-01-06T04:13:46;21.50;;;20.30;;
6775;SDS011;3425;51.376;5.222;2024-01-06T04:16:13;22.58;;;21.27;;
6775;SDS011;3425;51.376;5.222;2024-01-06T04:18:41;21.50;;;20.30;;
6775;SDS011;3425;51.376;5.222;2024-01-06T04:21:08;23.92;;;21.77;;
6775;SDS011;3425;51.376;5.222;2024-01-06T04:23:35;20.98;;;19.73;;
6775;SDS011;3425;51.376;5.222;2024-01-06T04:26:02;21.95;;;20.55;;
6775;SDS011;3425;51.376;5.222;2024-01-06T04:28:33;21.17;;;19.98;;
6775;SDS011;3425;51.376;5.222;2024-01-06T04:31:00;22.02;;;20.77;;
6775;SDS011;3425;51.376;5.222;2024-01-06T04:33:28;21.38;;;20.17;;
6775;SDS011;3425;51.376;5.222;2024-01-06T04:35:56;21.38;;;20.17;;
6775;SDS011;3425;51.376;5.222;2024-01-06T04:38:24;21.48;;;20.10;;
6775;SDS011;3425;51.376;5.222;2024-01-06T04:40:54;22.20;;;20.90;;
6775;SDS011;3425;51.376;5.222;2024-01-06T04:43:21;21.40;;;20.20;;
6775;SDS011;3425;51.376;5.222;2024-01-06T04:45:49;20.92;;;19.80;;
6775;SDS011;3425;51.376;5.222;2024-01-06T04:48:17;21.83;;;20.63;;
6775;SDS011;3425;51.376;5.222;2024-01-06T04:50:44;23.02;;;21.08;;
6775;SDS011;3425;51.376;5.222;2024-01-06T04:53:12;21.63;;;20.42;;
6775;SDS011;3425;51.376;5.222;2024-01-06T04:55:39;20.65;;;19.50;;
6775;SDS011;3425;51.376;5.222;2024-01-06T04:58:08;21.42;;;20.00;;
6775;SDS011;3425;51.376;5.222;2024-01-06T05:00:35;21.25;;;20.05;;
6775;SDS011;3425;51.376;5.222;2024-01-06T05:03:03;22.20;;;20.50;;
6775;SDS011;3425;51.376;5.222;2024-01-06T05:05:30;22.15;;;20.75;;
6775;SDS011;3425;51.376;5.222;2024-01-06T05:07:58;20.60;;;19.45;;
6775;SDS011;3425;51.376;5.222;2024-01-06T05:10:26;21.20;;;19.90;;
6775;SDS011;3425;51.376;5.222;2024-01-06T05:12:53;21.60;;;20.30;;
6775;SDS011;3425;51.376;5.222;2024-01-06T05:15:20;20.90;;;19.70;;
6775;SDS011;3425;51.376;5.222;2024-01-06T05:17:47;22.05;;;20.40;;
6775;SDS011;3425;51.376;5.222;2024-01-06T05:20:15;21.33;;;20.05;;
6775;SDS011;3425;51.376;5.222;2024-01-06T05:22:42;21.08;;;19.88;;
6775;SDS011;3425;51.376;5.222;2024-01-06T05:25:10;21.77;;;20.42;;
6775;SDS011;3425;51.376;5.222;2024-01-06T05:27:37;21.48;;;20.27;;
6775;SDS011;3425;51.376;5.222;2024-01-06T05:30:04;20.92;;;19.73;;
6775;SDS011;3425;51.376;5.222;2024-01-06T05:32:32;20.48;;;19.38;;
6775;SDS011;3425;51.376;5.222;2024-01-06T05:35:00;20.35;;;19.25;;
6775;SDS011;3425;51.376;5.222;2024-01-06T05:37:27;20.90;;;19.70;;
6775;SDS011;3425;51.376;5.222;2024-01-06T05:39:55;19.63;;;18.55;;
6775;SDS011;3425;51.376;5.222;2024-01-06T05:42:27;20.80;;;19.60;;
6775;SDS011;3425;51.376;5.222;2024-01-06T05:44:54;20.60;;;19.45;;
6775;SDS011;3425;51.376;5.222;2024-01-06T05:47:21;19.90;;;18.80;;
6775;SDS011;3425;51.376;5.222;2024-01-06T05:49:49;20.08;;;18.98;;
6775;SDS011;3425;51.376;5.222;2024-01-06T05:52:16;20.92;;;19.73;;
6775;SDS011;3425;51.376;5.222;2024-01-06T05:54:43;20.90;;;19.70;;
6775;SDS011;3425;51.376;5.222;2024-01-06T05:57:11;20.80;;;19.50;;
6775;SDS011;3425;51.376;5.222;2024-01-06T05:59:38;21.10;;;19.65;;
6775;SDS011;3425;51.376;5.222;2024-01-06T06:02:06;21.05;;;19.90;;
6775;SDS011;3425;51.376;5.222;2024-01-06T06:04:34;20.50;;;19.40;;
6775;SDS011;3425;51.376;5.222;2024-01-06T06:07:01;21.50;;;20.30;;
6775;SDS011;3425;51.376;5.222;2024-01-06T06:09:29;22.42;;;21.13;;
6775;SDS011;3425;51.376;5.222;2024-01-06T06:11:57;21.38;;;20.17;;
6775;SDS011;3425;51.376;5.222;2024-01-06T06:14:25;21.70;;;20.50;;
6775;SDS011;3425;51.376;5.222;2024-01-06T06:16:55;21.92;;;20.52;;
6775;SDS011;3425;51.376;5.222;2024-01-06T06:19:23;21.88;;;20.58;;
6775;SDS011;3425;51.376;5.222;2024-01-06T06:21:50;21.20;;;20.00;;
6775;SDS011;3425;51.376;5.222;2024-01-06T06:24:19;21.67;;;20.00;;
6775;SDS011;3425;51.376;5.222;2024-01-06T06:26:46;20.13;;;19.02;;
6775;SDS011;3425;51.376;5.222;2024-01-06T06:29:13;23.95;;;22.10;;
6775;SDS011;3425;51.376;5.222;2024-01-06T06:31:40;21.10;;;19.90;;
6775;SDS011;3425;51.376;5.222;2024-01-06T06:34:11;21.00;;;19.77;;
6775;SDS011;3425;51.376;5.222;2024-01-06T06:36:38;20.75;;;19.55;;
6775;SDS011;3425;51.376;5.222;2024-01-06T06:39:05;22.05;;;20.70;;
6775;SDS011;3425;51.376;5.222;2024-01-06T06:41:34;22.85;;;20.95;;
6775;SDS011;3425;51.376;5.222;2024-01-06T06:44:01;21.90;;;20.60;;
6775;SDS011;3425;51.376;5.222;2024-01-06T06:46:28;20.77;;;19.58;;
6775;SDS011;3425;51.376;5.222;2024-01-06T06:48:57;21.10;;;19.90;;
6775;SDS011;3425;51.376;5.222;2024-01-06T06:51:25;20.85;;;19.70;;
6775;SDS011;3425;51.376;5.222;2024-01-06T06:53:54;20.80;;;19.65;;
6775;SDS011;3425;51.376;5.222;2024-01-06T06:56:21;21.48;;;20.27;;
6775;SDS011;3425;51.376;5.222;2024-01-06T06:58:48;21.73;;;20.52;;
6775;SDS011;3425;51.376;5.222;2024-01-06T07:01:15;21.67;;;20.35;;
6775;SDS011;3425;51.376;5.222;2024-01-06T07:03:43;22.05;;;20.67;;
6775;SDS011;3425;51.376;5.222;2024-01-06T07:06:13;22.02;;;20.83;;
6775;SDS011;3425;51.376;5.222;2024-01-06T07:08:41;21.20;;;20.00;;
6775;SDS011;3425;51.376;5.222;2024-01-06T07:11:08;21.65;;;20.45;;
6775;SDS011;3425;51.376;5.222;2024-01-06T07:13:38;21.77;;;20.52;;
6775;SDS011;3425;51.376;5.222;2024-01-06T07:16:06;21.35;;;20.00;;
6775;SDS011;3425;51.376;5.222;2024-01-06T07:18:44;22.17;;;20.88;;
6775;SDS011;3425;51.376;5.222;2024-01-06T07:21:12;21.25;;;20.05;;
6775;SDS011;3425;51.376;5.222;2024-01-06T07:23:41;21.50;;;20.30;;
6775;SDS011;3425;51.376;5.222;2024-01-06T07:26:09;21.02;;;19.83;;
6775;SDS011;3425;51.376;5.222;2024-01-06T07:28:36;20.85;;;19.73;;
6775;SDS011;3425;51.376;5.222;2024-01-06T07:31:03;21.60;;;20.35;;
6775;SDS011;3425;51.376;5.222;2024-01-06T07:33:31;20.58;;;19.48;;
6775;SDS011;3425;51.376;5.222;2024-01-06T07:35:59;20.52;;;19.42;;
6775;SDS011;3425;51.376;5.222;2024-01-06T07:38:27;21.20;;;19.80;;
6775;SDS011;3425;51.376;5.222;2024-01-06T07:40:54;20.30;;;19.10;;
6775;SDS011;3425;51.376;5.222;2024-01-06T07:43:21;20.55;;;19.45;;
6775;SDS011;3425;51.376;5.222;2024-01-06T07:45:49;20.27;;;19.15;;
6775;SDS011;3425;51.376;5.222;2024-01-06T07:48:17;20.58;;;19.38;;
6775;SDS011;3425;51.376;5.222;2024-01-06T07:50:46;20.80;;;19.38;;
6775;SDS011;3425;51.376;5.222;2024-01-06T07:53:13;19.83;;;18.73;;
6775;SDS011;3425;51.376;5.222;2024-01-06T07:55:41;20.05;;;18.95;;
6775;SDS011;3425;51.376;5.222;2024-01-06T07:58:08;21.50;;;20.10;;
6775;SDS011;3425;51.376;5.222;2024-01-06T08:00:35;21.85;;;20.15;;
6775;SDS011;3425;51.376;5.222;2024-01-06T08:03:02;21.52;;;20.27;;
6775;SDS011;3425;51.376;5.222;2024-01-06T08:05:32;20.95;;;19.65;;
6775;SDS011;3425;51.376;5.222;2024-01-06T08:08:00;20.90;;;19.70;;
6775;SDS011;3425;51.376;5.222;2024-01-06T08:10:27;21.25;;;20.05;;
6775;SDS011;3425;51.376;5.222;2024-01-06T08:12:54;21.40;;;20.20;;
6775;SDS011;3425;51.376;5.222;2024-01-06T08:15:22;21.20;;;20.00;;
6775;SDS011;3425;51.376;5.222;2024-01-06T08:17:49;21.92;;;20.40;;
6775;SDS011;3425;51.376;5.222;2024-01-06T08:20:16;20.75;;;19.55;;
6775;SDS011;3425;51.376;5.222;2024-01-06T08:22:44;21.05;;;19.77;;
6775;SDS011;3425;51.376;5.222;2024-01-06T08:25:11;20.50;;;19.40;;
6775;SDS011;3425;51.376;5.222;2024-01-06T08:27:39;22.65;;;20.67;;
6775;SDS011;3425;51.376;5.222;2024-01-06T08:30:07;20.08;;;18.98;;
6775;SDS011;3425;51.376;5.222;2024-01-06T08:32:35;20.60;;;19.40;;
6775;SDS011;3425;51.376;5.222;2024-01-06T08:35:02;19.70;;;18.60;;
6775;SDS011;3425;51.376;5.222;2024-01-06T08:37:30;20.15;;;19.05;;
6775;SDS011;3425;51.376;5.222;2024-01-06T08:39:57;20.27;;;19.17;;
6775;SDS011;3425;51.376;5.222;2024-01-06T08:42:25;20.55;;;19.35;;
6775;SDS011;3425;51.376;5.222;2024-01-06T08:44:52;20.35;;;19.20;;
6775;SDS011;3425;51.376;5.222;2024-01-06T08:47:19;22.35;;;20.80;;
6775;SDS011;3425;51.376;5.222;2024-01-06T08:49:47;20.90;;;19.70;;
6775;SDS011;3425;51.376;5.222;2024-01-06T08:52:15;20.90;;;19.70;;
6775;SDS011;3425;51.376;5.222;2024-01-06T08:54:42;19.80;;;18.70;;
6775;SDS011;3425;51.376;5.222;2024-01-06T08:57:09;20.20;;;19.00;;
6775;SDS011;3425;51.376;5.222;2024-01-06T08:59:37;20.50;;;19.02;;
6775;SDS011;3425;51.376;5.222;2024-01-06T09:02:06;19.33;;;18.23;;
6775;SDS011;3425;51.376;5.222;2024-01-06T09:04:34;19.40;;;18.30;;
6775;SDS011;3425;51.376;5.222;2024-01-06T09:07:01;19.10;;;18.10;;
6775;SDS011;3425;51.376;5.222;2024-01-06T09:09:28;18.63;;;17.63;;
6775;SDS011;3425;51.376;5.222;2024-01-06T09:11:57;19.10;;;17.88;;
6775;SDS011;3425;51.376;5.222;2024-01-06T09:14:25;18.90;;;17.90;;
6775;SDS011;3425;51.376;5.222;2024-01-06T09:16:52;18.50;;;17.45;;
6775;SDS011;3425;51.376;5.222;2024-01-06T09:19:20;18.38;;;17.38;;
6775;SDS011;3425;51.376;5.222;2024-01-06T09:21:48;18.60;;;17.58;;
6775;SDS011;3425;51.376;5.222;2024-01-06T09:24:15;18.48;;;17.38;;
6775;SDS011;3425;51.376;5.222;2024-01-06T09:26:43;17.67;;;16.77;;
6775;SDS011;3425;51.376;5.222;2024-01-06T09:29:10;18.08;;;17.10;;
6775;SDS011;3425;51.376;5.222;2024-01-06T09:31:38;17.40;;;16.50;;
6775;SDS011;3425;51.376;5.222;2024-01-06T09:34:07;18.13;;;17.13;;
6775;SDS011;3425;51.376;5.222;2024-01-06T09:36:36;18.00;;;17.02;;
6775;SDS011;3425;51.376;5.222;2024-01-06T09:39:03;18.42;;;17.42;;
6775;SDS011;3425;51.376;5.222;2024-01-06T09:41:31;19.63;;;18.33;;
6775;SDS011;3425;51.376;5.222;2024-01-06T09:43:59;18.40;;;17.40;;
6775;SDS011;3425;51.376;5.222;2024-01-06T09:46:27;18.08;;;17.17;;
6775;SDS011;3425;51.376;5.222;2024-01-06T09:48:58;18.13;;;17.13;;
6775;SDS011;3425;51.376;5.222;2024-01-06T09:51:26;18.40;;;17.40;;
6775;SDS011;3425;51.376;5.222;2024-01-06T09:53:59;19.60;;;18.50;;
6775;SDS011;3425;51.376;5.222;2024-01-06T09:56:27;18.83;;;17.83;;
6775;SDS011;3425;51.376;5.222;2024-01-06T09:58:55;18.08;;;17.15;;
6775;SDS011;3425;51.376;5.222;2024-01-06T10:01:23;18.92;;;17.83;;
6775;SDS011;3425;51.376;5.222;2024-01-06T10:03:51;17.67;;;16.67;;
6775;SDS011;3425;51.376;5.222;2024-01-06T10:06:18;16.98;;;16.08;;
6775;SDS011;3425;51.376;5.222;2024-01-06T10:08:50;18.05;;;16.90;;
6775;SDS011;3425;51.376;5.222;2024-01-06T10:11:24;17.35;;;16.38;;
6775;SDS011;3425;51.376;5.222;2024-01-06T10:13:52;15.70;;;14.90;;
6775;SDS011;3425;51.376;5.222;2024-01-06T10:16:23;15.75;;;14.95;;
6775;SDS011;3425;51.376;5.222;2024-01-06T10:18:50;15.73;;;14.93;;
6775;SDS011;3425;51.376;5.222;2024-01-06T10:21:24;15.63;;;14.73;;
6775;SDS011;3425;51.376;5.222;2024-01-06T10:23:53;16.00;;;15.10;;
6775;SDS011;3425;51.376;5.222;2024-01-06T10:26:21;15.15;;;14.30;;
6775;SDS011;3425;51.376;5.222;2024-01-06T10:28:48;15.07;;;14.27;;
6775;SDS011;3425;51.376;5.222;2024-01-06T10:31:17;14.68;;;13.98;;
6775;SDS011;3425;51.376;5.222;2024-01-06T10:33:46;15.02;;;14.23;;
6775;SDS011;3425;51.376;5.222;2024-01-06T10:36:14;14.85;;;14.05;;
6775;SDS011;3425;51.376;5.222;2024-01-06T10:38:42;15.15;;;14.35;;
6775;SDS011;3425;51.376;5.222;2024-01-06T10:41:09;14.85;;;14.15;;
6775;SDS011;3425;51.376;5.222;2024-01-06T10:43:38;15.65;;;14.40;;
6775;SDS011;3425;51.376;5.222;2024-01-06T10:46:07;14.32;;;13.63;;
6775;SDS011;3425;51.376;5.222;2024-01-06T10:48:38;15.32;;;14.32;;
6775;SDS011;3425;51.376;5.222;2024-01-06T10:51:10;13.63;;;12.93;;
6775;SDS011;3425;51.376;5.222;2024-01-06T10:53:38;12.40;;;11.80;;
6775;SDS011;3425;51.376;5.222;2024-01-06T10:56:07;13.25;;;12.55;;
6775;SDS011;3425;51.376;5.222;2024-01-06T10:58:35;11.35;;;10.85;;
6775;SDS011;3425;51.376;5.222;2024-01-06T11:01:13;12.32;;;11.63;;
6775;SDS011;3425;51.376;5.222;2024-01-06T11:03:45;11.50;;;10.98;;
6775;SDS011;3425;51.376;5.222;2024-01-06T11:06:14;11.20;;;10.60;;
6775;SDS011;3425;51.376;5.222;2024-01-06T11:08:51;11.50;;;10.90;;
6775;SDS011;3425;51.376;5.222;2024-01-06T11:11:20;10.40;;;9.80;;
6775;SDS011;3425;51.376;5.222;2024-01-06T11:13:49;10.68;;;10.18;;
6775;SDS011;3425;51.376;5.222;2024-01-06T11:16:35;9.90;;;9.40;;
6775;SDS011;3425;51.376;5.222;2024-01-06T11:19:03;9.80;;;9.30;;
6775;SDS011;3425;51.376;5.222;2024-01-06T11:21:50;9.02;;;8.63;;
6775;SDS011;3425;51.376;5.222;2024-01-06T11:24:18;9.27;;;8.77;;
6775;SDS011;3425;51.376;5.222;2024-01-06T11:26:51;7.80;;;7.40;;
6775;SDS011;3425;51.376;5.222;2024-01-06T11:29:19;7.50;;;7.20;;
6775;SDS011;3425;51.376;5.222;2024-01-06T11:34:36;6.15;;;5.90;;
6775;SDS011;3425;51.376;5.222;2024-01-06T11:37:04;7.20;;;6.80;;
6775;SDS011;3425;51.376;5.222;2024-01-06T11:39:36;5.05;;;4.82;;
6775;SDS011;3425;51.376;5.222;2024-01-06T11:42:04;6.40;;;6.10;;
6775;SDS011;3425;51.376;5.222;2024-01-06T11:44:39;7.55;;;6.85;;
6775;SDS011;3425;51.376;5.222;2024-01-06T11:47:07;8.40;;;7.80;;
6775;SDS011;3425;51.376;5.222;2024-01-06T11:49:35;8.13;;;7.55;;
6775;SDS011;3425;51.376;5.222;2024-01-06T11:52:02;6.32;;;6.03;;
6775;SDS011;3425;51.376;5.222;2024-01-06T11:54:30;6.05;;;5.75;;
6775;SDS011;3425;51.376;5.222;2024-01-06T11:56:58;6.55;;;6.15;;
6775;SDS011;3425;51.376;5.222;2024-01-06T11:59:26;8.90;;;8.40;;
6775;SDS011;3425;51.376;5.222;2024-01-06T12:01:53;9.27;;;8.57;;
6775;SDS011;3425;51.376;5.222;2024-01-06T12:04:20;9.10;;;8.70;;
6775;SDS011;3425;51.376;5.222;2024-01-06T12:06:48;8.90;;;8.50;;
6775;SDS011;3425;51.376;5.222;2024-01-06T12:09:16;10.43;;;9.93;;
6775;SDS011;3425;51.376;5.222;2024-01-06T12:11:45;7.65;;;7.35;;
6775;SDS011;3425;51.376;5.222;2024-01-06T12:14:13;9.38;;;8.77;;
6775;SDS011;3425;51.376;5.222;2024-01-06T12:16:42;6.85;;;6.55;;
6775;SDS011;3425;51.376;5.222;2024-01-06T12:19:09;5.57;;;5.38;;
6775;SDS011;3425;51.376;5.222;2024-01-06T12:21:37;6.85;;;6.55;;
6775;SDS011;3425;51.376;5.222;2024-01-06T12:24:17;6.15;;;5.82;;
6775;SDS011;3425;51.376;5.222;2024-01-06T12:26:47;4.95;;;4.75;;
6775;SDS011;3425;51.376;5.222;2024-01-06T12:29:15;4.70;;;4.50;;
6775;SDS011;3425;51.376;5.222;2024-01-06T12:31:43;4.50;;;4.28;;
6775;SDS011;3425;51.376;5.222;2024-01-06T12:34:11;4.45;;;4.15;;
6775;SDS011;3425;51.376;5.222;2024-01-06T12:36:39;3.15;;;3.05;;
6775;SDS011;3425;51.376;5.222;2024-01-06T12:39:10;3.08;;;2.95;;
6775;SDS011;3425;51.376;5.222;2024-01-06T12:41:42;3.22;;;3.13;;
6775;SDS011;3425;51.376;5.222;2024-01-06T12:44:09;2.00;;;2.00;;
6775;SDS011;3425;51.376;5.222;2024-01-06T12:46:37;1.90;;;1.90;;
6775;SDS011;3425;51.376;5.222;2024-01-06T12:49:04;4.95;;;2.60;;
6775;SDS011;3425;51.376;5.222;2024-01-06T12:51:31;2.92;;;1.98;;
6775;SDS011;3425;51.376;5.222;2024-01-06T12:53:59;1.55;;;1.45;;
6775;SDS011;3425;51.376;5.222;2024-01-06T12:56:26;1.65;;;1.55;;
6775;SDS011;3425;51.376;5.222;2024-01-06T12:58:53;5.07;;;2.25;;
6775;SDS011;3425;51.376;5.222;2024-01-06T13:01:21;1.52;;;1.50;;
6775;SDS011;3425;51.376;5.222;2024-01-06T13:03:48;2.40;;;2.05;;
6775;SDS011;3425;51.376;5.222;2024-01-06T13:06:16;1.95;;;1.52;;
6775;SDS011;3425;51.376;5.222;2024-01-06T13:08:45;1.08;;;1.08;;
6775;SDS011;3425;51.376;5.222;2024-01-06T13:11:13;1.30;;;1.30;;
6775;SDS011;3425;51.376;5.222;2024-01-06T13:13:41;1.70;;;1.65;;
6775;SDS011;3425;51.376;5.222;2024-01-06T13:16:08;1.70;;;1.60;;
6775;SDS011;3425;51.376;5.222;2024-01-06T13:18:36;1.00;;;1.00;;
6775;SDS011;3425;51.376;5.222;2024-01-06T13:21:03;1.10;;;1.10;;
6775;SDS011;3425;51.376;5.222;2024-01-06T13:23:33;1.27;;;1.27;;
6775;SDS011;3425;51.376;5.222;2024-01-06T13:26:01;1.20;;;1.20;;
6775;SDS011;3425;51.376;5.222;2024-01-06T13:28:28;1.42;;;1.42;;
6775;SDS011;3425;51.376;5.222;2024-01-06T13:30:56;1.80;;;1.70;;
6775;SDS011;3425;51.376;5.222;2024-01-06T13:33:24;1.20;;;1.20;;
6775;SDS011;3425;51.376;5.222;2024-01-06T13:35:52;0.98;;;0.98;;
6775;SDS011;3425;51.376;5.222;2024-01-06T13:38:19;1.35;;;1.35;;
6775;SDS011;3425;51.376;5.222;2024-01-06T13:40:48;1.27;;;1.25;;
6775;SDS011;3425;51.376;5.222;2024-01-06T13:43:15;1.83;;;1.50;;
6775;SDS011;3425;51.376;5.222;2024-01-06T13:45:43;1.70;;;1.70;;
6775;SDS011;3425;51.376;5.222;2024-01-06T13:48:11;1.77;;;1.63;;
6775;SDS011;3425;51.376;5.222;2024-01-06T13:50:38;1.60;;;1.50;;
6775;SDS011;3425;51.376;5.222;2024-01-06T13:53:05;2.00;;;1.92;;
6775;SDS011;3425;51.376;5.222;2024-01-06T13:55:33;1.88;;;1.77;;
6775;SDS011;3425;51.376;5.222;2024-01-06T13:58:00;2.55;;;1.92;;
6775;SDS011;3425;51.376;5.222;2024-01-06T14:00:28;1.20;;;1.20;;
6775;SDS011;3425;51.376;5.222;2024-01-06T14:02:56;1.45;;;1.45;;
6775;SDS011;3425;51.376;5.222;2024-01-06T14:05:24;0.90;;;0.90;;
6775;SDS011;3425;51.376;5.222;2024-01-06T14:07:51;2.13;;;2.03;;
6775;SDS011;3425;51.376;5.222;2024-01-06T14:10:19;1.80;;;1.70;;
6775;SDS011;3425;51.376;5.222;2024-01-06T14:12:46;1.38;;;1.38;;
6775;SDS011;3425;51.376;5.222;2024-01-06T14:15:14;3.22;;;1.77;;
6775;SDS011;3425;51.376;5.222;2024-01-06T14:17:42;10.00;;;3.08;;
6775;SDS011;3425;51.376;5.222;2024-01-06T14:20:16;1.65;;;1.63;;
6775;SDS011;3425;51.376;5.222;2024-01-06T14:22:45;1.33;;;1.33;;
6775;SDS011;3425;51.376;5.222;2024-01-06T14:25:12;1.60;;;1.50;;
6775;SDS011;3425;51.376;5.222;2024-01-06T14:27:40;1.10;;;1.10;;
6775;SDS011;3425;51.376;5.222;2024-01-06T14:30:07;3.22;;;1.55;;
6775;SDS011;3425;51.376;5.222;2024-01-06T14:32:36;41.10;;;2.67;;
6775;SDS011;3425;51.376;5.222;2024-01-06T14:35:07;1.38;;;1.38;;
6775;SDS011;3425;51.376;5.222;2024-01-06T14:37:37;1.92;;;1.88;;
6775;SDS011;3425;51.376;5.222;2024-01-06T14:40:06;1.38;;;1.38;;
6775;SDS011;3425;51.376;5.222;2024-01-06T14:42:34;2.45;;;1.85;;
6775;SDS011;3425;51.376;5.222;2024-01-06T14:45:03;1.65;;;1.55;;
6775;SDS011;3425;51.376;5.222;2024-01-06T14:47:31;1.92;;;1.83;;
6775;SDS011;3425;51.376;5.222;2024-01-06T14:49:59;2.25;;;2.15;;
6775;SDS011;3425;51.376;5.222;2024-01-06T14:52:26;2.22;;;2.03;;
6775;SDS011;3425;51.376;5.222;2024-01-06T14:54:54;1.13;;;1.13;;
6775;SDS011;3425;51.376;5.222;2024-01-06T14:57:21;1.58;;;1.50;;
6775;SDS011;3425;51.376;5.222;2024-01-06T14:59:49;2.10;;;1.58;;
6775;SDS011;3425;51.376;5.222;2024-01-06T15:02:18;0.90;;;0.90;;